World of Logs combat log analyzer allows gamers to save, share and analyze their raiding experiences conveniently and thoroughly in the Blizzard MMO World of Warcraft. If you're new here, make sure you check out the tour for a 1 minute introduction. If you have any questions, we're happy to answer them on the forums.

DPS HPS
Odyn
Helya
Guarm
Reports for Thorim - statistics
# Date Time Damage DPS Guild Realm
1 03 Apr 2012 00:20 4.38M 210213.4 Anduins Legacy US-Aggramar
2 16 Apr 2012 00:20 4.60M 219643.7 Fringe EU-Ревущий фьорд
3 05 Mar 2012 00:24 3.29M 131928.1 ssff EU-Nathrezim
4 02 Mar 2012 00:27 4.72M 174806.4 Assorted Excitement US-Mannoroth
5 13 Apr 2012 00:27 4.42M 163557.0 Greatness US-Blackrock
6 24 Jun 2012 00:27 4.60M 167149.2 Iv EU-Emerald Dream
7 06 Jan 2012 00:27 3.28M 118357.4 THG EU-Arthas
8 04 Feb 2012 00:27 4.24M 153080.4 Panda's WoL US-Suramar
9 02 Jul 2012 00:28 4.30M 152464.6 Deadlydotz Logs US-Stormreaver
10 20 Jul 2012 00:28 3.06M 108241.7 RUBLAS LOGS EU-Chamber of Aspects
11 02 Jun 2012 00:28 4.45M 156825.2 DrFaceroll EU-Blackrock
12 12 Mar 2012 00:28 3.11M 108703.4 New Hope EU-Ревущий фьорд
13 14 Mar 2012 00:28 4.76M 166036.7 Tedupload US-Illidan
14 20 Mar 2012 00:28 4.75M 165185.3 Circle of Nine EU-Burning Legion
15 21 Feb 2012 00:29 4.64M 158328.3 fallin EU-Nathrezim
16 17 Mar 2012 00:29 4.27M 145002.6 Exodus Group 2 US-Arthas
17 07 May 2012 00:29 4.31M 145723.4 Combined Effect EU-Azshara
18 21 Aug 2012 00:29 4.44M 149121.9 Pulse EU-Blackmoore
19 18 Apr 2012 00:29 4.47M 149910.0 Aftermath US-Feathermoon
20 22 Nov 2011 00:29 4.43M 148321.3 Irae AoD EU-Mug'thol
21 12 Nov 2011 00:30 2.94M 97720.7 OH HAI! EU-Eonar
22 24 Nov 2011 00:30 4.32M 140894.7 PalaHunterZ EU-Nathrezim
23 14 Apr 2012 00:30 4.50M 146026.9 Cocoabutters's logs US-Mal'Ganis
24 28 Apr 2012 00:30 3.24M 104716.2 Mythical Honour EU-Arathor
25 17 Feb 2012 00:31 4.24M 136501.1 Logging Your FACE US-Icecrown
26 21 Aug 2012 00:31 4.32M 138232.5 Синтез Смерти/uberwar EU-Гордунни
27 21 Apr 2012 00:32 4.69M 145911.0 Order Of The SilverFlame EU-Draenor
28 15 Apr 2012 00:32 4.37M 134837.2 Mostly Harmless US-Undermine
29 03 Mar 2012 00:32 4.77M 146996.3 ehrengarde des lichts EU-Die Arguswacht
30 09 Aug 2012 00:32 4.77M 146674.7 SundayFunday US-Stormscale
31 07 May 2012 00:32 3.04M 93121.4 LA - Music US-Stormreaver
32 07 May 2012 00:32 3.04M 92995.8 LA - Runestones US-Stormrage
33 20 May 2012 00:33 4.21M 127361.2 Velocity US-Steamwheedle Cartel
34 17 Sep 2011 00:33 4.32M 128636.7 Yappity US-Steamwheedle Cartel
35 17 Apr 2012 00:33 4.26M 126712.3 Merciless US-Emerald Dream
36 13 May 2012 00:33 3.06M 90322.3 RISB US-Cenarius
37 18 Jun 2012 00:34 3.17M 92986.2 The Silver Serpent Order US-Feathermoon
38 12 Feb 2012 00:34 4.43M 129451.0 GDKP Infinitum EU-Neptulon
39 11 Mar 2012 00:34 4.76M 139324.8 Cistara's Logs US-Illidan
40 18 May 2012 00:34 4.37M 127097.2 Masons of Valor US-Bladefist
41 28 Jul 2012 00:34 4.31M 124996.3 Rocky Horror US-Gurubashi
42 23 Apr 2012 00:34 4.50M 130074.1 Revitalize EU-Auchindoun
43 02 Aug 2012 00:34 4.34M 125644.2 OOM US-Whisperwind
44 03 May 2012 00:34 4.35M 125656.7 Requiem der Klingen EU-Forscherliga
45 28 Jul 2012 00:34 4.31M 124149.4 LNC US-Area 52
46 26 Aug 2012 00:34 4.89M 140680.5 micheletto US-Stormrage
47 02 Nov 2011 00:34 4.55M 130206.8 Predestined US-Bleeding Hollow
48 29 Jan 2012 00:35 4.42M 126244.3 Field's Logs US-Kil'jaeden
49 15 Dec 2011 00:35 4.35M 122884.6 Eddy Personal EU-Laughing Skull
50 09 Aug 2012 00:35 4.25M 120263.8 Titan US-Bloodhoof
51 18 May 2012 00:35 2.96M 83734.1 Aegis 10m US-Llane
52 14 May 2012 00:35 5.11M 143581.6 Dark Element US-Lethon
53 26 Mar 2012 00:35 4.49M 125705.9 Harmony's Log's US-Eldre'Thalas
54 03 Apr 2012 00:35 4.53M 126603.5 Rinse And Repeat US-Tortheldrin
55 13 Mar 2012 00:35 4.28M 119750.4 No Apologies EU-Kazzak
56 14 Feb 2011 00:35 4.27M 118955.0 Fact or Fiction EU-Blackmoore
57 16 Apr 2012 00:36 4.25M 117302.3 ноксис EU-Гордунни
58 09 Feb 2012 00:36 4.57M 125988.5 Sardonic US-Kargath
59 02 Apr 2012 00:36 4.46M 121897.9 Nayeli Lagoon US-Stormrage
60 24 Nov 2011 00:36 4.42M 120444.3 Eclipse EU-Sylvanas
61 22 Sep 2011 00:37 4.23M 113100.8 Apocalypse After Dark US-Ghostlands
62 11 Mar 2012 00:37 3.07M 82217.3 Ocean Blue US-Area 52
63 12 Apr 2011 00:37 3.06M 81891.4 enProgresso EU-Nozdormu
64 07 Apr 2012 00:37 4.17M 111190.6 Temporalis Bellatoris EU-Das Syndikat
65 27 Aug 2011 00:37 4.35M 114999.2 Миднайт EU-Гордунни
66 22 Jan 2012 00:37 2.92M 77308.5 Off Topic EU-Twisting Nether
67 11 Nov 2011 00:38 4.41M 116155.1 аркадия 2 EU-Гордунни
68 15 Aug 2012 00:38 4.44M 116405.2 FranticFridge US-Eredar
69 24 Mar 2012 00:38 3.11M 81258.8 Greg's Reports US-Area 52
70 08 Jul 2012 00:38 4.56M 118994.4 Навадий EU-Ясеневый лес
71 02 Aug 2012 00:38 4.31M 112140.2 Onslaught US-Doomhammer
72 23 Jul 2012 00:38 4.35M 112909.2 EDL-Neobell EU-Die Arguswacht
73 23 Jul 2012 00:38 4.39M 113929.6 ehrengarde des lichts EU-Die Arguswacht
74 02 May 2012 00:38 4.31M 111591.8 Gwen US-Gnomeregan
75 10 Jul 2012 00:38 4.26M 110225.2 Eclipse US-Sargeras
76 28 Oct 2011 00:38 3.11M 80049.3 Spirits of Blood EU-Kel'Thuzad
77 01 Feb 2012 00:39 4.31M 110466.2 Ènvy US-Bladefist
78 12 Apr 2012 00:39 4.43M 113092.2 Disbanded R2 EU-Drak'thul
79 25 Oct 2011 00:39 4.26M 108474.5 Knightmare US-Bonechewer
80 19 Feb 2012 00:39 4.34M 109049.8 Challenge Accepted [H] US-Quel'dorei
81 22 Apr 2012 00:39 4.98M 124942.1 Schaufel sein Account EU-Mal'Ganis
82 10 Dec 2011 00:40 2.98M 74064.7 Алконит Хорд EU-Страж Смерти
83 11 Mar 2012 00:40 4.45M 110619.4 Envy US-Tichondrius
84 21 Jan 2012 00:40 3.08M 75735.9 Stigmates EU-Dalaran
85 25 Jul 2012 00:40 3.15M 77360.9 Djangolos EU-Blackhand
86 18 Nov 2010 00:40 3.00M 73626.6 Shadow Ryders EU-The Maelstrom
87 05 Apr 2012 00:40 4.37M 107001.8 Escelating Stupidity US-Perenolde
88 17 Mar 2012 00:40 3.14M 76752.9 Kabr logs EU-Черный Шрам
89 17 Mar 2012 00:40 3.14M 76752.9 Kabr logs EU-Черный Шрам
90 22 Aug 2012 00:40 4.43M 108126.5 Barrier's Log EU-Tarren Mill
91 12 Aug 2012 00:41 4.93M 118670.9 Anonymous US-Terenas
92 15 Apr 2012 00:41 3.33M 79720.7 Название Утеряно EU-Ревущий фьорд
93 05 Aug 2012 00:42 4.43M 105049.6 Equilibrium US-Proudmoore
94 09 Dec 2011 00:42 4.46M 105697.6 Dedicated Heroes EU-Alleria
95 10 Nov 2011 00:42 4.46M 105444.4 Grenzwert EU-Ambossar
96 28 Jul 2012 00:42 4.40M 103173.1 Is Awesome EU-Blackhand
97 23 Aug 2011 00:42 4.34M 101247.3 Varjo Soturi Failbarone EU-Alleria
98 15 Oct 2011 00:43 4.37M 101587.4 Fast Action Guys US-Velen
99 21 Aug 2012 00:43 4.49M 104247.9 Die Wichtel EU-Das Konsortium
100 18 Aug 2012 00:43 4.26M 98277.7 Pherin DPS US-Coilfang

Please do not close the page with the ad you want to report.

I've posted a guide on how to report misbehaving ads on the forum. Please follow the instructions and help make the internet a safer place. Thanks for you time.